Oracle, AZ

4:56 AM MST on July 03, 2015 (GMT -0700)
Breezy Acres | | Change Station
CLOSE
Current Station
Personal Weather Station
Location: Oracle, AZ
Elevation: 4272 ft
Nearby Weather Stations

Elev 4272 ft 32.62 °N, 110.80 °W | Updated 6 minutes ago

Overcast
Overcast
67.8 °F
Feels Like 67.8 °F
N
6.3
Wind Variable Wind from East

Today
High -- | Low -- °F
--% Chance of Precip.
Yesterday
High -- | Low -- °F
Precip. -- in
5:19 AM 7:34 PM
Full, 97% visible
Pressure 29.83 in
Visibility 10.0 miles
Clouds Few 16000 ft
Dew Point 61 °F
Humidity 80%
Rainfall 0.00 in
Snow Depth Not available.
UV 0 out of 12
Pollen 4.10 out of 12
Air Quality Not available.
Flu Activity Not available.
METAR KDMA 031058Z AUTO 22004KT 10SM FEW160 29/15 A2998 RMK AO2 SLP101 T02890151 $

More Conditions Fewer Conditions

Pressure 29.83 in
Visibility 10.0 miles
Clouds Few 16000 ft
Dew Point 61 °F
Humidity 80%
Rainfall 0.00 in
Snow Depth Not available.
UV 0 out of 12
Pollen 4.10 out of 12
Air Quality Not available.
Flu Activity Not available.
METAR KDMA 031058Z AUTO 22004KT 10SM FEW160 29/15 A2998 RMK AO2 SLP101 T02890151 $

More Conditions Fewer Conditions

Nowcast | as of 3:50 am MST on July 3, 2015

A large area of light rain with a few embedded thunderstorms producing moderate rainfall continued across parts of Southeast Arizona early this morning. Expect this rain to gradually diminish and end by late morning. Thereafter...isolated to scattered showers and thunderstorms will redevelop later in the afternoon and evening.

×

10-Day Weather Forecast

×

Almanac

Astronomy

Jul. 03, 2015 Rise Set
Actual Time
Civil Twilight
Nautical Twilight
Astronomical Twilight
Moon
Length of Visible Light
Length of Day
Tomorrow will be .
, % of the Moon is Illuminated

Today's Extremes

State Highs State Lows

Community

WunderPhotos

Upload Photos

1,834,656 photos uploaded!

WunderBlogs® & News

Nearby

Air Quality

  Air Quality AQ Index Pollutant
Not available.

Snow Depth

Station Depth Elevation

Earthquake Activity

City Distance Mag. Time & Date
Minimum magnitude displayed is 2.5.

Coastal Water Temperatures

Place Temperature

Stations

Nearby Weather Stations

Station Location Temp. Windchill Dew Point Humidity Wind Precip. Elev Updated Type